Time;durP1;ratioP1;P1;durP2;ratioP2;P2;SDS_P1;SDS_P2;PMS_P1;PMS_P2;Temp;Humidity;BMP_temperature;BMP_pressure;BME280_temperature;BME280_humidity;BME280_pressure;Samples;Min_cycle;Max_cycle;Signal;HPM_P1;HPM_P2
2023/01/06 00:01:27;;;;;;;14.68;7.00;;;13.80;99.90;;;;;;4859159;29;20447;-70
2023/01/06 00:03:59;;;;;;;20.02;7.63;;;13.60;99.90;;;;;;4859037;29;20136;-69
2023/01/06 00:06:26;;;;;;;23.02;7.82;;;13.60;99.90;;;;;;4858420;29;20054;-69
2023/01/06 00:09:02;;;;;;;14.80;5.82;;;13.70;99.90;;;;;;4858625;29;20155;-70
2023/01/06 00:11:28;;;;;;;15.35;5.88;;;13.60;99.90;;;;;;4858055;29;20056;-70
2023/01/06 00:13:55;;;;;;;18.58;5.68;;;13.80;99.90;;;;;;4859521;29;20050;-70
2023/01/06 00:16:21;;;;;;;15.55;5.70;;;13.60;99.90;;;;;;4858517;29;20132;-70
2023/01/06 00:18:47;;;;;;;;;;;13.60;99.90;;;;;;4859165;29;20502;-69
2023/01/06 00:21:17;;;;;;;13.88;4.28;;;13.80;99.90;;;;;;4843453;29;19953;-75
2023/01/06 00:23:43;;;;;;;22.63;5.25;;;13.60;99.90;;;;;;4845268;29;20077;-77
2023/01/06 00:26:09;;;;;;;17.55;4.93;;;13.80;99.90;;;;;;4841686;29;20462;-76
2023/01/06 00:28:36;;;;;;;15.80;4.40;;;13.70;99.90;;;;;;4848810;29;20041;-77
2023/01/06 00:31:05;;;;;;;;;;;13.70;99.90;;;;;;4844703;29;20044;-76
2023/01/06 00:33:31;;;;;;;15.25;4.47;;;13.70;99.90;;;;;;4858495;29;20666;-76
2023/01/06 00:36:00;;;;;;;19.08;4.70;;;13.70;99.90;;;;;;4859275;29;20101;-76
2023/01/06 00:38:26;;;;;;;20.23;4.88;;;13.60;99.90;;;;;;4844428;29;20046;-76
2023/01/06 00:40:52;;;;;;;13.73;4.65;;;13.70;99.90;;;;;;4859499;29;20053;-77
2023/01/06 00:43:17;;;;;;;11.80;4.18;;;13.60;99.90;;;;;;4860301;29;20060;-77
2023/01/06 00:45:43;;;;;;;18.10;4.55;;;13.60;99.90;;;;;;4859756;29;20046;-77
2023/01/06 00:48:09;;;;;;;18.85;4.68;;;13.70;99.90;;;;;;4857851;29;20148;-69
2023/01/06 00:50:34;;;;;;;13.80;4.78;;;13.60;99.90;;;;;;4841721;29;20049;-70
2023/01/06 00:53:00;;;;;;;15.13;4.30;;;13.70;99.90;;;;;;4843125;29;20124;-70
2023/01/06 00:55:26;;;;;;;15.90;4.45;;;13.50;99.90;;;;;;4857702;29;20053;-70
2023/01/06 00:57:52;;;;;;;15.27;4.78;;;13.50;99.90;;;;;;4857667;29;20159;-69
2023/01/06 01:00:18;;;;;;;12.77;4.85;;;13.60;99.90;;;;;;4856821;29;20045;-70
2023/01/06 01:02:44;;;;;;;13.10;4.55;;;13.50;99.90;;;;;;4858283;29;20486;-70
2023/01/06 01:05:10;;;;;;;16.63;5.22;;;13.50;99.90;;;;;;4842548;29;20117;-70
2023/01/06 01:07:36;;;;;;;14.43;4.50;;;13.40;99.90;;;;;;4856406;29;20067;-69
2023/01/06 01:10:02;;;;;;;13.15;4.30;;;13.40;99.90;;;;;;4857601;29;20037;-70
2023/01/06 01:12:28;;;;;;;13.18;4.30;;;13.50;99.90;;;;;;4855474;29;20486;-70
2023/01/06 01:14:53;;;;;;;14.15;4.55;;;13.40;99.90;;;;;;4842770;29;20069;-69
2023/01/06 01:17:31;;;;;;;9.13;3.33;;;13.40;99.90;;;;;;4857969;29;20072;-76
2023/01/06 01:19:58;;;;;;;11.23;3.60;;;13.30;99.90;;;;;;4858910;29;20057;-77
2023/01/06 01:22:27;;;;;;;8.70;3.10;;;13.20;99.90;;;;;;4842600;29;20052;-76
2023/01/06 01:24:53;;;;;;;9.98;3.20;;;13.20;99.90;;;;;;4858108;29;20050;-76
2023/01/06 01:27:19;;;;;;;11.15;3.33;;;13.10;99.90;;;;;;4845582;29;20053;-76
2023/01/06 01:29:44;;;;;;;9.20;3.03;;;13.10;99.90;;;;;;4857609;29;20061;-76
2023/01/06 01:32:10;;;;;;;13.00;3.13;;;13.00;99.90;;;;;;4857815;29;20470;-77
2023/01/06 01:34:36;;;;;;;10.40;2.90;;;12.90;99.90;;;;;;4859513;29;20046;-76
2023/01/06 01:37:02;;;;;;;9.38;2.83;;;12.80;99.90;;;;;;4854294;29;20045;-77
2023/01/06 01:39:29;;;;;;;;;;;12.70;99.90;;;;;;4840649;29;20038;-70
2023/01/06 01:41:56;;;;;;;13.13;3.08;;;12.70;99.90;;;;;;4857683;29;19976;-70
2023/01/06 01:44:54;;;;;;;11.82;2.50;;;12.70;99.90;;;;;;4857186;29;20045;-70
2023/01/06 01:47:32;;;;;;;8.30;2.63;;;12.60;99.90;;;;;;4855213;29;20056;-70
2023/01/06 01:50:09;;;;;;;9.57;2.40;;;12.60;99.90;;;;;;4857114;29;20418;-70
2023/01/06 01:52:35;;;;;;;7.63;2.38;;;12.50;99.90;;;;;;4857309;29;20145;-70
2023/01/06 01:55:02;;;;;;;8.65;2.50;;;12.40;99.90;;;;;;4857206;29;20611;-70
2023/01/06 01:57:41;;;;;;;8.80;3.17;;;12.40;99.90;;;;;;4841564;29;20052;-70
2023/01/06 02:00:08;;;;;;;8.80;2.80;;;12.30;99.90;;;;;;4855736;29;20178;-70
2023/01/06 02:02:34;;;;;;;11.45;2.72;;;12.30;99.90;;;;;;4856723;29;20080;-69
2023/01/06 02:05:01;;;;;;;6.95;2.53;;;12.20;99.90;;;;;;4850527;29;20090;-70
2023/01/06 02:07:27;;;;;;;7.82;2.80;;;12.20;99.90;;;;;;4855295;29;20124;-70
2023/01/06 02:10:20;;;;;;;7.70;2.90;;;12.10;99.90;;;;;;4856880;29;20056;-70
2023/01/06 02:12:48;;;;;;;10.70;3.05;;;12.10;99.90;;;;;;4838256;29;20506;-70
2023/01/06 02:15:24;;;;;;;5.57;2.58;;;12.00;99.90;;;;;;4846927;29;20061;-70
2023/01/06 02:18:08;;;;;;;8.02;3.20;;;12.00;99.90;;;;;;4840121;29;20049;-70
2023/01/06 02:20:59;;;;;;;8.05;3.20;;;12.00;99.90;;;;;;4856178;29;20064;-69
2023/01/06 02:24:03;;;;;;;10.85;3.28;;;12.00;99.90;;;;;;4856085;29;20088;-69
2023/01/06 02:26:42;;;;;;;8.45;2.97;;;11.90;99.90;;;;;;4856172;29;20053;-69
2023/01/06 02:29:10;;;;;;;7.72;2.90;;;11.90;99.90;;;;;;4830933;29;20459;-70
2023/01/06 02:32:07;;;;;;;7.32;2.65;;;11.80;99.90;;;;;;4856883;29;20525;-70
2023/01/06 02:34:42;;;;;;;8.60;2.80;;;11.80;99.90;;;;;;4854718;29;20405;-70
2023/01/06 02:37:39;;;;;;;9.93;2.90;;;11.80;99.90;;;;;;4855657;29;20041;-70
2023/01/06 02:40:39;;;;;;;9.27;2.90;;;11.80;99.90;;;;;;4846874;29;20089;-69
2023/01/06 02:43:26;;;;;;;7.57;3.38;;;11.70;99.90;;;;;;4829316;29;20061;-70
2023/01/06 02:46:46;;;;;;;11.65;3.17;;;11.70;99.90;;;;;;4848676;29;20053;-71
2023/01/06 02:49:21;;;;;;;6.80;2.45;;;11.70;99.90;;;;;;4800523;29;20591;-69
2023/01/06 02:52:01;;;;;;;8.80;2.95;;;11.60;99.90;;;;;;4849382;29;20137;-71
2023/01/06 02:54:31;;;;;;;9.07;2.80;;;11.60;99.90;;;;;;4856291;29;20053;-71
2023/01/06 02:57:12;;;;;;;7.15;2.33;;;11.60;99.90;;;;;;4841410;29;20446;-71
2023/01/06 02:59:49;;;;;;;5.55;2.22;;;11.60;99.90;;;;;;4853728;29;20097;-72
2023/01/06 03:02:17;;;;;;;6.10;2.50;;;11.60;99.90;;;;;;4838996;29;20052;-71
2023/01/06 03:04:45;;;;;;;10.02;2.60;;;11.50;99.90;;;;;;4852554;29;20122;-71
2023/01/06 03:07:14;;;;;;;8.88;2.70;;;11.50;99.90;;;;;;4838248;29;20037;-71
2023/01/06 03:09:40;;;;;;;5.15;2.50;;;11.50;99.90;;;;;;4856603;29;20053;-72
2023/01/06 03:12:21;;;;;;;5.82;2.25;;;11.50;99.90;;;;;;4855258;29;20053;-71
2023/01/06 03:14:50;;;;;;;6.63;2.22;;;11.40;99.90;;;;;;4854939;29;20045;-77
2023/01/06 03:17:16;;;;;;;9.15;2.80;;;11.40;99.90;;;;;;4841275;29;20124;-77
2023/01/06 03:19:43;;;;;;;8.15;2.72;;;11.40;99.90;;;;;;4859157;29;20077;-77
2023/01/06 03:22:11;;;;;;;6.90;2.42;;;11.40;99.90;;;;;;4859879;29;20139;-78
2023/01/06 03:24:38;;;;;;;7.22;2.50;;;11.40;99.90;;;;;;4858221;29;20045;-78
2023/01/06 03:27:04;;;;;;;9.52;2.70;;;11.40;99.90;;;;;;4859822;29;20096;-78
2023/01/06 03:29:30;;;;;;;6.15;2.53;;;11.40;99.90;;;;;;4861018;29;20125;-78
2023/01/06 03:32:24;;;;;;;6.57;2.55;;;11.40;99.90;;;;;;4829839;29;20053;-77
2023/01/06 03:35:19;;;;;;;6.25;2.85;;;11.40;99.90;;;;;;4847118;29;20098;-78
2023/01/06 03:37:55;;;;;;;5.80;2.63;;;11.40;99.90;;;;;;4843012;29;20078;-77
2023/01/06 03:41:02;;;;;;;7.03;2.67;;;11.40;99.90;;;;;;4858571;29;20120;-78
2023/01/06 03:43:48;;;;;;;6.13;2.67;;;11.40;99.90;;;;;;4771236;30;20405;-78
2023/01/06 03:46:29;;;;;;;5.03;2.28;;;11.40;99.90;;;;;;4853572;29;20124;-71
2023/01/06 03:49:21;;;;;;;5.40;2.45;;;11.40;99.90;;;;;;4858418;29;20046;-71
2023/01/06 03:52:09;;;;;;;8.38;2.83;;;11.30;99.90;;;;;;4857578;29;20045;-72
2023/01/06 03:54:41;;;;;;;5.65;2.88;;;11.30;99.90;;;;;;4841804;29;20045;-71
2023/01/06 03:57:15;;;;;;;5.05;2.85;;;11.30;99.90;;;;;;4836851;29;20050;-77
2023/01/06 03:59:47;;;;;;;6.05;2.83;;;11.30;99.90;;;;;;4848960;29;20071;-78
2023/01/06 04:02:13;;;;;;;5.65;3.10;;;11.30;99.90;;;;;;4857525;29;20193;-77
2023/01/06 04:04:39;;;;;;;;;;;11.30;99.90;;;;;;4845454;29;20041;-77
2023/01/06 04:07:05;;;;;;;7.05;3.20;;;11.30;99.90;;;;;;4859911;29;19924;-77
2023/01/06 04:09:31;;;;;;;6.30;4.07;;;11.30;99.90;;;;;;4859754;29;20505;-78
2023/01/06 04:15:00;;;;;;;5.07;4.03;;;11.30;99.90;;;;;;4798297;29;20206;-78
2023/01/06 04:17:26;;;;;;;6.05;4.30;;;11.30;99.90;;;;;;4793013;29;20050;-77
2023/01/06 04:19:52;;;;;;;6.90;4.60;;;11.30;99.90;;;;;;4830043;29;20508;-78
2023/01/06 04:22:17;;;;;;;6.97;4.10;;;11.30;99.90;;;;;;4845775;29;20049;-78
2023/01/06 04:24:43;;;;;;;5.50;4.10;;;11.30;99.90;;;;;;4861064;29;20145;-78
2023/01/06 04:27:09;;;;;;;6.70;4.18;;;11.30;99.90;;;;;;4842753;29;20065;-77
2023/01/06 04:29:34;;;;;;;4.90;3.80;;;11.30;99.90;;;;;;4859120;29;20041;-77
2023/01/06 04:32:00;;;;;;;5.55;3.88;;;11.30;99.90;;;;;;4842582;29;20073;-78
2023/01/06 04:34:26;;;;;;;6.18;3.75;;;11.30;99.90;;;;;;4845000;29;20041;-77
2023/01/06 04:36:51;;;;;;;5.22;3.30;;;11.30;99.90;;;;;;4858760;29;20133;-78
2023/01/06 04:39:17;;;;;;;6.03;3.65;;;11.30;99.90;;;;;;4844740;29;20061;-77
2023/01/06 04:41:43;;;;;;;4.65;2.72;;;11.30;99.90;;;;;;4859608;29;20128;-78
2023/01/06 04:44:09;;;;;;;6.18;3.03;;;11.20;99.90;;;;;;4844465;29;20145;-78
2023/01/06 04:46:34;;;;;;;4.35;2.63;;;11.30;99.90;;;;;;4844351;29;20106;-77
2023/01/06 04:49:00;;;;;;;4.95;2.80;;;11.30;99.90;;;;;;4857689;29;20487;-77
2023/01/06 04:51:26;;;;;;;4.75;2.70;;;11.30;99.90;;;;;;4841974;29;20042;-77
2023/01/06 04:53:51;;;;;;;4.60;2.60;;;11.30;99.90;;;;;;4856756;29;20049;-77
2023/01/06 04:56:17;;;;;;;4.38;2.60;;;11.20;99.90;;;;;;4858868;29;20414;-77
2023/01/06 04:58:44;;;;;;;6.45;2.88;;;11.20;99.90;;;;;;4858346;29;20603;-76
2023/01/06 05:01:11;;;;;;;5.35;2.30;;;11.20;99.90;;;;;;4856778;29;20045;-77
2023/01/06 05:03:38;;;;;;;6.07;2.50;;;11.20;99.90;;;;;;4856396;29;20085;-78
2023/01/06 05:06:09;;;;;;;4.40;2.40;;;11.20;99.90;;;;;;4855291;29;20684;-78
2023/01/06 05:08:36;;;;;;;5.15;2.50;;;11.20;99.90;;;;;;4857957;29;20042;-78
2023/01/06 05:11:08;;;;;;;4.78;2.35;;;11.20;99.90;;;;;;4859212;29;20053;-78
2023/01/06 05:13:35;;;;;;;2.92;1.92;;;11.20;99.90;;;;;;4858590;29;20037;-78
2023/01/06 05:16:04;;;;;;;;;;;11.20;99.90;;;;;;4842600;29;20050;-78
2023/01/06 05:18:33;;;;;;;5.78;2.40;;;11.20;99.90;;;;;;4858873;29;19924;-78
2023/01/06 05:20:59;;;;;;;3.85;2.13;;;11.20;99.90;;;;;;4857903;29;20053;-78
2023/01/06 05:23:24;;;;;;;5.63;2.15;;;11.20;99.90;;;;;;4858424;29;20053;-78
2023/01/06 05:25:51;;;;;;;4.95;2.17;;;11.20;99.90;;;;;;4839774;29;20048;-77
2023/01/06 05:28:17;;;;;;;6.00;2.30;;;11.20;99.90;;;;;;4835554;29;20038;-78
2023/01/06 05:30:43;;;;;;;6.07;2.47;;;11.20;99.90;;;;;;4856091;29;20065;-78
2023/01/06 05:33:09;;;;;;;4.93;2.42;;;11.20;99.90;;;;;;4858260;29;20049;-77
2023/01/06 05:35:34;;;;;;;5.10;2.00;;;11.20;99.90;;;;;;4859334;29;20087;-78
2023/01/06 05:38:00;;;;;;;5.30;2.20;;;11.20;99.90;;;;;;4859556;29;20521;-77
2023/01/06 05:40:26;;;;;;;4.53;2.20;;;11.20;99.90;;;;;;4857982;29;20045;-77
2023/01/06 05:42:53;;;;;;;;;;;11.20;99.90;;;;;;4840450;29;20199;-77
2023/01/06 05:45:19;;;;;;;4.95;2.70;;;11.10;99.90;;;;;;4841804;29;20372;-77
2023/01/06 05:47:45;;;;;;;6.25;2.97;;;11.20;99.90;;;;;;4858946;29;20065;-78
2023/01/06 05:50:11;;;;;;;3.92;3.25;;;11.10;99.90;;;;;;4824440;29;20053;-78
2023/01/06 05:52:36;;;;;;;5.20;3.78;;;11.10;99.90;;;;;;4856804;29;20058;-80
2023/01/06 05:55:02;;;;;;;8.32;4.03;;;11.10;99.90;;;;;;4858550;29;20045;-78
2023/01/06 05:57:31;;;;;;;4.47;3.53;;;11.10;99.90;;;;;;4856918;29;20141;-78
2023/01/06 05:59:56;;;;;;;4.97;3.30;;;11.10;99.90;;;;;;4850838;29;20091;-77
2023/01/06 06:02:22;;;;;;;6.38;3.65;;;11.10;99.90;;;;;;4857441;29;20180;-78
2023/01/06 06:04:48;;;;;;;5.97;4.20;;;11.10;99.90;;;;;;4858181;29;20060;-77
2023/01/06 06:07:13;;;;;;;5.03;4.45;;;11.10;99.90;;;;;;4857102;29;20137;-78
2023/01/06 06:09:42;;;;;;;5.68;4.57;;;11.10;99.90;;;;;;4843061;29;20057;-78
2023/01/06 06:12:08;;;;;;;5.05;4.38;;;11.10;99.90;;;;;;4856777;29;20064;-78
2023/01/06 06:14:34;;;;;;;6.20;4.63;;;11.20;99.90;;;;;;4857360;29;20045;-77
2023/01/06 06:16:59;;;;;;;6.30;4.45;;;11.20;99.90;;;;;;4857880;29;20137;-78
2023/01/06 06:19:25;;;;;;;7.05;4.72;;;11.20;99.90;;;;;;4856829;29;20054;-77
2023/01/06 06:21:52;;;;;;;6.05;4.60;;;11.30;99.90;;;;;;4842967;29;20049;-77
2023/01/06 06:24:18;;;;;;;5.40;4.43;;;11.40;99.90;;;;;;4841915;29;20461;-77
2023/01/06 06:26:44;;;;;;;7.00;4.35;;;11.40;99.90;;;;;;4827272;29;20041;-77
2023/01/06 06:29:10;;;;;;;5.53;4.32;;;11.50;99.90;;;;;;4842882;29;20450;-77
2023/01/06 06:31:35;;;;;;;6.38;4.63;;;11.50;99.90;;;;;;4855425;29;20033;-78
2023/01/06 06:34:02;;;;;;;4.90;4.38;;;11.60;99.90;;;;;;4837205;29;20046;-77
2023/01/06 06:36:29;;;;;;;6.13;4.25;;;11.60;99.90;;;;;;4840538;29;20081;-77
2023/01/06 06:38:55;;;;;;;5.32;4.05;;;11.60;99.90;;;;;;4851547;29;20759;-77
2023/01/06 06:41:23;;;;;;;5.53;4.15;;;11.70;99.90;;;;;;4842565;29;20096;-69
2023/01/06 06:43:49;;;;;;;4.65;3.90;;;11.70;99.90;;;;;;4820567;29;20499;-72
2023/01/06 06:46:16;;;;;;;6.18;4.00;;;11.70;99.90;;;;;;4852168;29;20490;-72
2023/01/06 06:48:41;;;;;;;;;;;11.70;99.90;;;;;;4853783;29;20069;-71
2023/01/06 06:51:09;;;;;;;4.65;4.15;;;11.80;99.90;;;;;;4853901;29;19963;-70
2023/01/06 06:53:36;;;;;;;5.53;4.15;;;11.90;99.90;;;;;;4858418;29;20060;-70
2023/01/06 06:56:04;;;;;;;4.95;3.50;;;11.90;99.90;;;;;;4861663;29;20042;-70
2023/01/06 06:58:30;;;;;;;5.88;3.90;;;11.80;99.90;;;;;;4856706;29;20103;-70
2023/01/06 07:00:56;;;;;;;5.18;3.53;;;11.90;99.90;;;;;;4877366;29;20409;-70
2023/01/06 07:03:22;;;;;;;5.50;3.28;;;12.00;99.90;;;;;;4840997;29;20042;-69
2023/01/06 07:05:50;;;;;;;3.90;2.83;;;12.00;99.90;;;;;;4855182;29;20414;-69
2023/01/06 07:08:16;;;;;;;4.00;3.15;;;12.00;99.90;;;;;;4860018;29;20037;-69
2023/01/06 07:10:42;;;;;;;4.82;3.05;;;12.00;99.90;;;;;;4860863;29;20101;-69
2023/01/06 07:13:07;;;;;;;3.65;2.83;;;12.10;99.90;;;;;;4842048;29;20045;-70
2023/01/06 07:15:33;;;;;;;3.80;2.92;;;12.10;99.90;;;;;;4861704;29;20060;-70
2023/01/06 07:18:01;;;;;;;3.33;3.00;;;12.10;99.90;;;;;;4856028;29;20504;-68
2023/01/06 07:20:31;;;;;;;3.53;2.35;;;12.10;99.90;;;;;;4861506;29;20049;-68
2023/01/06 07:22:56;;;;;;;3.70;2.50;;;12.10;99.90;;;;;;4857952;29;20137;-70
2023/01/06 07:25:22;;;;;;;2.58;2.10;;;12.30;99.90;;;;;;4841627;29;20061;-70
2023/01/06 07:27:59;;;;;;;3.80;2.58;;;12.30;99.90;;;;;;4854692;29;20414;-70
2023/01/06 07:30:26;;;;;;;3.35;1.85;;;12.40;99.90;;;;;;4844899;29;20451;-70
2023/01/06 07:32:52;;;;;;;2.83;1.90;;;12.30;99.90;;;;;;4863727;29;20098;-69
2023/01/06 07:35:21;;;;;;;4.18;1.70;;;12.40;99.90;;;;;;4861683;29;20049;-69
2023/01/06 07:37:46;;;;;;;2.50;1.33;;;12.30;99.90;;;;;;4859598;29;20053;-77
2023/01/06 07:40:13;;;;;;;2.35;1.30;;;12.30;99.90;;;;;;4864451;29;20049;-77
2023/01/06 07:42:39;;;;;;;3.33;1.70;;;12.40;99.90;;;;;;4860900;29;20435;-77
2023/01/06 07:45:06;;;;;;;2.53;1.10;;;12.40;99.90;;;;;;4847989;29;20071;-77
2023/01/06 07:47:32;;;;;;;3.47;1.20;;;12.30;99.90;;;;;;4863335;29;20038;-76
2023/01/06 07:49:58;;;;;;;3.88;1.20;;;12.20;99.90;;;;;;4863537;29;20135;-76
2023/01/06 07:52:23;;;;;;;3.33;1.10;;;12.00;99.90;;;;;;4847525;29;20049;-76
2023/01/06 07:54:49;;;;;;;4.70;1.20;;;11.80;99.90;;;;;;4862412;29;20064;-77
2023/01/06 07:57:15;;;;;;;3.75;1.13;;;11.60;99.90;;;;;;4848720;29;20557;-76
2023/01/06 07:59:40;;;;;;;3.40;0.80;;;11.40;99.90;;;;;;4862913;29;20054;-76
2023/01/06 08:02:08;;;;;;;2.25;0.90;;;11.30;99.90;;;;;;4861994;29;20136;-76
2023/01/06 08:04:34;;;;;;;4.32;0.95;;;11.10;99.90;;;;;;4855663;29;20082;-77
2023/01/06 08:07:00;;;;;;;3.78;1.10;;;11.00;99.90;;;;;;4857879;29;20045;-77
2023/01/06 08:09:26;;;;;;;6.28;0.88;;;10.90;99.90;;;;;;4855883;29;20041;-77
2023/01/06 08:11:51;;;;;;;7.15;1.50;;;10.70;99.90;;;;;;4858876;29;20045;-77
2023/01/06 08:14:17;;;;;;;5.28;1.27;;;10.60;99.90;;;;;;4859429;29;20153;-76
2023/01/06 08:16:43;;;;;;;5.22;0.90;;;10.50;99.90;;;;;;4859938;29;20049;-76
2023/01/06 08:19:08;;;;;;;5.18;0.90;;;10.30;99.90;;;;;;4857601;29;20041;-77
2023/01/06 08:21:34;;;;;;;4.05;0.75;;;10.20;99.90;;;;;;4856917;29;20056;-77
2023/01/06 08:24:00;;;;;;;3.95;0.60;;;10.20;99.90;;;;;;4841398;29;20124;-76
2023/01/06 08:26:25;;;;;;;3.50;0.82;;;10.00;99.90;;;;;;4860071;29;20049;-76
2023/01/06 08:28:52;;;;;;;3.63;1.17;;;9.90;99.90;;;;;;4858171;29;20559;-76
2023/01/06 08:31:19;;;;;;;3.40;0.70;;;9.90;99.90;;;;;;4838972;29;20037;-76
2023/01/06 08:33:46;;;;;;;4.38;0.98;;;9.80;99.90;;;;;;4851249;29;20422;-77
2023/01/06 08:36:15;;;;;;;4.93;0.82;;;9.70;99.90;;;;;;4833929;29;20049;-76
2023/01/06 08:38:40;;;;;;;3.10;0.68;;;9.70;99.90;;;;;;4858251;29;20144;-77
2023/01/06 08:41:07;;;;;;;3.35;0.73;;;9.60;99.90;;;;;;4839877;29;20179;-77
2023/01/06 08:43:33;;;;;;;5.15;0.70;;;9.50;99.90;;;;;;4842439;29;20409;-77
2023/01/06 08:46:00;;;;;;;;;;;9.50;99.90;;;;;;4859746;29;20544;-77
2023/01/06 08:48:27;;;;;;;5.77;1.03;;;9.40;99.90;;;;;;4859516;29;20039;-77
2023/01/06 08:50:53;;;;;;;5.68;1.02;;;9.40;99.90;;;;;;4823387;29;20303;-78
2023/01/06 08:53:18;;;;;;;4.63;0.60;;;9.40;99.90;;;;;;4853675;29;20105;-76
2023/01/06 08:55:47;;;;;;;4.05;0.52;;;9.30;99.90;;;;;;4840250;29;20056;-77
2023/01/06 08:58:13;;;;;;;5.63;1.00;;;9.30;99.90;;;;;;4824032;29;20154;-77
2023/01/06 09:00:41;;;;;;;4.05;0.88;;;9.30;99.90;;;;;;4854228;29;20133;-77
2023/01/06 09:03:06;;;;;;;5.20;0.82;;;9.30;99.90;;;;;;4859460;29;20053;-77
2023/01/06 09:05:32;;;;;;;6.63;0.95;;;9.30;99.90;;;;;;4858139;29;20053;-77
2023/01/06 09:07:58;;;;;;;3.45;0.70;;;9.30;99.90;;;;;;4838833;29;20478;-76
2023/01/06 09:10:24;;;;;;;5.32;0.80;;;9.30;99.90;;;;;;4857470;29;20081;-76
2023/01/06 09:12:50;;;;;;;5.72;1.00;;;9.30;99.90;;;;;;4853734;29;20054;-77
2023/01/06 09:15:16;;;;;;;4.25;0.95;;;9.40;99.90;;;;;;4857219;29;20057;-76
2023/01/06 09:17:42;;;;;;;6.45;0.90;;;9.30;99.90;;;;;;4844609;29;20049;-77
2023/01/06 09:20:08;;;;;;;7.75;0.88;;;9.40;99.90;;;;;;4859418;29;20083;-78
2023/01/06 09:22:34;;;;;;;;;;;9.40;99.90;;;;;;4840670;29;20538;-76
2023/01/06 09:25:00;;;;;;;7.53;1.20;;;9.30;99.90;;;;;;4856666;29;19928;-76
2023/01/06 09:27:25;;;;;;;7.07;1.10;;;9.40;99.90;;;;;;4833707;29;20097;-76
2023/01/06 09:29:51;;;;;;;5.13;1.30;;;9.40;99.90;;;;;;4838566;29;20061;-77
2023/01/06 09:32:16;;;;;;;6.55;1.35;;;9.40;99.90;;;;;;4843527;29;20379;-77
2023/01/06 09:34:42;;;;;;;4.50;1.00;;;9.50;99.90;;;;;;4856496;29;20041;-75
2023/01/06 09:37:08;;;;;;;5.65;1.52;;;9.50;99.90;;;;;;4857655;29;20060;-77
2023/01/06 09:39:35;;;;;;;10.02;1.40;;;9.50;99.90;;;;;;4858082;29;20208;-76
2023/01/06 09:42:33;;;;;;;6.50;1.17;;;9.50;99.90;;;;;;4856091;29;20050;-77
2023/01/06 09:45:03;;;;;;;7.50;1.42;;;9.50;99.90;;;;;;4843231;29;20082;-77
2023/01/06 09:47:34;;;;;;;8.73;1.33;;;9.60;99.90;;;;;;4860664;29;20049;-77
2023/01/06 09:50:27;;;;;;;9.60;1.48;;;9.60;99.90;;;;;;4858086;29;20050;-76
2023/01/06 09:52:57;;;;;;;4.55;0.95;;;9.80;99.90;;;;;;4856076;29;20483;-76
2023/01/06 09:55:35;;;;;;;9.00;1.23;;;9.90;99.90;;;;;;4855623;29;20057;-76
2023/01/06 09:58:12;;;;;;;8.50;1.50;;;9.90;99.90;;;;;;4855015;29;20057;-76
2023/01/06 10:00:45;;;;;;;7.15;1.40;;;9.90;99.90;;;;;;4839226;29;20482;-76
2023/01/06 10:03:19;;;;;;;6.38;1.60;;;10.00;99.90;;;;;;4858940;29;20100;-76
2023/01/06 10:06:09;;;;;;;10.18;1.70;;;9.90;99.90;;;;;;4859890;29;20068;-77
2023/01/06 10:08:38;;;;;;;8.25;1.80;;;9.90;99.90;;;;;;4870305;29;20057;-76
2023/01/06 10:11:12;;;;;;;9.32;1.30;;;9.90;99.90;;;;;;4858754;29;20144;-76
2023/01/06 10:13:44;;;;;;;8.02;1.17;;;9.90;99.90;;;;;;4854410;29;20061;-76
2023/01/06 10:16:22;;;;;;;6.95;1.40;;;9.90;99.90;;;;;;4857856;29;20049;-77
2023/01/06 10:19:25;;;;;;;8.30;1.30;;;9.90;99.90;;;;;;4840300;29;20113;-77
2023/01/06 10:22:22;;;;;;;6.65;1.30;;;9.90;99.90;;;;;;4818387;29;20444;-77
2023/01/06 10:25:16;;;;;;;7.10;1.52;;;9.90;99.90;;;;;;4854916;29;20056;-77
2023/01/06 10:27:50;;;;;;;10.13;1.40;;;9.90;99.90;;;;;;4841264;29;20045;-77
2023/01/06 10:30:21;;;;;;;9.60;1.27;;;9.90;99.90;;;;;;4857540;29;20056;-70
2023/01/06 10:32:48;;;;;;;8.07;1.33;;;10.00;99.90;;;;;;4857266;29;20037;-70
2023/01/06 10:35:17;;;;;;;6.32;1.20;;;10.00;99.90;;;;;;4856998;29;20057;-71
2023/01/06 10:37:48;;;;;;;9.32;1.63;;;10.00;99.90;;;;;;4841822;29;20465;-70
2023/01/06 10:40:24;;;;;;;7.03;1.40;;;10.00;99.90;;;;;;4856480;29;20108;-70
2023/01/06 10:43:07;;;;;;;11.45;1.40;;;10.00;99.90;;;;;;4839557;29;20052;-70
2023/01/06 10:45:43;;;;;;;3.63;1.08;;;10.00;99.90;;;;;;4867972;29;20045;-71
2023/01/06 10:48:13;;;;;;;9.40;1.20;;;10.00;99.90;;;;;;4857037;29;20062;-70
2023/01/06 10:50:39;;;;;;;7.07;1.48;;;9.80;99.90;;;;;;4841289;29;20042;-70
2023/01/06 10:53:04;;;;;;;4.80;1.20;;;9.90;99.90;;;;;;4856401;29;20044;-70
2023/01/06 10:55:57;;;;;;;5.35;1.00;;;9.80;99.90;;;;;;4841891;29;20057;-70
2023/01/06 10:58:44;;;;;;;6.82;1.60;;;9.90;99.90;;;;;;4852307;29;20054;-71
2023/01/06 11:01:15;;;;;;;6.77;1.20;;;10.10;99.90;;;;;;4841650;29;20091;-71
2023/01/06 11:03:43;;;;;;;10.23;1.27;;;10.20;99.90;;;;;;4841313;29;20746;-70
2023/01/06 11:06:26;;;;;;;7.90;1.20;;;10.20;99.90;;;;;;4855844;29;20156;-71
2023/01/06 11:08:52;;;;;;;8.95;1.35;;;10.30;99.90;;;;;;4856878;29;20120;-70
2023/01/06 11:11:19;;;;;;;6.25;1.30;;;10.50;99.90;;;;;;4851481;29;20041;-70
2023/01/06 11:13:48;;;;;;;5.30;1.10;;;10.40;99.90;;;;;;4856344;29;20397;-71
2023/01/06 11:16:35;;;;;;;7.05;1.40;;;10.60;99.90;;;;;;4838960;29;20498;-70
2023/01/06 11:19:04;;;;;;;5.38;1.20;;;10.60;99.90;;;;;;4850879;29;20049;-71
2023/01/06 11:21:43;;;;;;;8.82;1.20;;;10.80;99.90;;;;;;4838671;29;20536;-71
2023/01/06 11:24:21;;;;;;;8.82;1.73;;;10.70;99.90;;;;;;4852311;29;20144;-71
2023/01/06 11:26:56;;;;;;;6.30;1.17;;;10.60;99.90;;;;;;4840344;29;20046;-71
2023/01/06 11:29:26;;;;;;;6.63;1.48;;;10.40;99.90;;;;;;4856843;29;20094;-72
2023/01/06 11:31:53;;;;;;;11.13;1.65;;;10.40;99.90;;;;;;4854099;29;20132;-72
2023/01/06 11:34:21;;;;;;;;;;;10.40;99.90;;;;;;4856188;29;20056;-72
2023/01/06 11:36:47;;;;;;;7.63;1.38;;;10.60;99.90;;;;;;4839234;29;20011;-72
2023/01/06 11:39:20;;;;;;;6.88;1.30;;;10.70;99.90;;;;;;4843285;29;20089;-72
2023/01/06 11:41:48;;;;;;;5.80;1.45;;;10.80;99.90;;;;;;4856458;29;20057;-72
2023/01/06 11:44:20;;;;;;;8.90;1.60;;;10.70;99.90;;;;;;4857281;29;20142;-71
2023/01/06 11:47:03;;;;;;;11.95;1.63;;;10.60;99.90;;;;;;4858135;29;20050;-74
2023/01/06 11:49:35;;;;;;;11.40;1.30;;;10.50;99.90;;;;;;4841822;29;20198;-71
2023/01/06 11:52:21;;;;;;;7.30;1.20;;;10.40;99.90;;;;;;4854737;29;20049;-71
2023/01/06 11:55:00;;;;;;;5.70;1.00;;;10.40;99.90;;;;;;4840627;29;20140;-71
2023/01/06 11:57:26;;;;;;;9.70;1.90;;;10.40;99.90;;;;;;4856977;29;20057;-71
2023/01/06 11:59:58;;;;;;;5.47;1.38;;;10.40;99.90;;;;;;4846308;29;20065;-71
2023/01/06 12:02:31;;;;;;;5.63;1.30;;;10.30;99.90;;;;;;4829290;29;20196;-71
2023/01/06 12:05:00;;;;;;;10.52;1.75;;;10.30;99.90;;;;;;4847900;29;20081;-71
2023/01/06 12:07:41;;;;;;;7.50;1.17;;;10.20;99.90;;;;;;4856664;29;20128;-72
2023/01/06 12:10:19;;;;;;;9.20;1.30;;;10.20;99.90;;;;;;4856588;29;20038;-71
2023/01/06 12:12:45;;;;;;;7.43;1.52;;;10.20;99.90;;;;;;4854140;29;20037;-71
2023/01/06 12:15:13;;;;;;;10.82;1.73;;;10.20;99.90;;;;;;4829933;29;20117;-71
2023/01/06 12:17:42;;;;;;;13.00;1.85;;;10.20;99.90;;;;;;4856657;29;20081;-77
2023/01/06 12:20:29;;;;;;;11.85;1.85;;;10.20;99.90;;;;;;4856053;29;20387;-77
2023/01/06 12:23:03;;;;;;;9.63;1.50;;;10.30;99.90;;;;;;4857710;29;20052;-77
2023/01/06 12:25:36;;;;;;;7.57;1.40;;;10.30;99.90;;;;;;4857732;29;20133;-78
2023/01/06 12:28:14;;;;;;;7.35;1.50;;;10.30;99.90;;;;;;4849470;29;20348;-77
2023/01/06 12:31:02;;;;;;;8.75;1.73;;;10.30;99.90;;;;;;4856809;29;20548;-77
2023/01/06 12:33:37;;;;;;;7.82;1.50;;;10.30;99.90;;;;;;4858841;29;20050;-78
2023/01/06 12:36:16;;;;;;;7.15;2.03;;;10.20;99.90;;;;;;4829454;29;20152;-77
2023/01/06 12:38:54;;;;;;;7.53;1.42;;;10.20;99.90;;;;;;4856393;29;20057;-78
2023/01/06 12:41:40;;;;;;;6.03;1.08;;;10.20;99.90;;;;;;4847530;29;20053;-76
2023/01/06 12:44:17;;;;;;;5.45;1.40;;;10.10;99.90;;;;;;4852526;29;20049;-70
2023/01/06 12:47:04;;;;;;;8.32;1.42;;;10.10;99.90;;;;;;4851579;29;20375;-70
2023/01/06 12:49:40;;;;;;;6.32;1.40;;;10.10;99.90;;;;;;4832501;29;20097;-72
2023/01/06 12:52:18;;;;;;;10.10;1.70;;;10.10;99.90;;;;;;4852968;29;20057;-72
2023/01/06 12:54:54;;;;;;;7.80;1.60;;;10.10;99.90;;;;;;4855647;29;20069;-71
2023/01/06 12:57:39;;;;;;;9.48;1.55;;;10.10;99.90;;;;;;4856154;29;20145;-71
2023/01/06 13:00:21;;;;;;;8.43;1.48;;;10.10;99.90;;;;;;4855572;29;20202;-71
2023/01/06 13:03:06;;;;;;;10.23;2.08;;;10.10;99.90;;;;;;4839573;29;20061;-72
2023/01/06 13:05:57;;;;;;;10.77;1.85;;;10.10;99.90;;;;;;4843146;29;20042;-72
2023/01/06 13:08:37;;;;;;;6.75;1.35;;;10.10;99.90;;;;;;4837481;29;20049;-72
2023/01/06 13:11:12;;;;;;;10.43;1.65;;;10.20;99.90;;;;;;4855291;29;20049;-72
2023/01/06 13:13:51;;;;;;;7.65;1.30;;;10.10;99.90;;;;;;4848939;29;20033;-72